Time;durP1;ratioP1;P1;durP2;ratioP2;P2;SDS_P1;SDS_P2;PMS_P1;PMS_P2;Temp;Humidity;BMP_temperature;BMP_pressure;BME280_temperature;BME280_humidity;BME280_pressure;Samples;Min_cycle;Max_cycle;Signal;HPM_P1;HPM_P2
2024/02/04 00:02:13;;;;;;;1.43;0.60;;;9.90;99.90;;;;;;5017536;28;20192;-84
2024/02/04 00:04:41;;;;;;;3.53;1.85;;;9.90;99.90;;;;;;5018900;28;20873;-85
2024/02/04 00:07:08;;;;;;;3.60;2.10;;;9.90;99.90;;;;;;5018860;28;20201;-85
2024/02/04 00:09:35;;;;;;;4.73;3.20;;;9.80;99.90;;;;;;5018552;28;20424;-84
2024/02/04 00:12:03;;;;;;;3.17;1.33;;;9.80;99.90;;;;;;5017987;28;20566;-86
2024/02/04 00:14:30;;;;;;;2.23;1.70;;;9.80;99.90;;;;;;5018455;28;20227;-85
2024/02/04 00:16:57;;;;;;;5.10;3.58;;;9.80;99.90;;;;;;5017803;28;20875;-85
2024/02/04 00:19:24;;;;;;;1.83;1.27;;;9.80;99.90;;;;;;5017669;28;20296;-83
2024/02/04 00:21:52;;;;;;;2.80;2.10;;;9.80;99.90;;;;;;5016229;28;20439;-83
2024/02/04 00:24:19;;;;;;;2.00;1.17;;;9.80;99.90;;;;;;5013017;28;20939;-83
2024/02/04 00:26:46;;;;;;;2.17;1.98;;;9.70;99.90;;;;;;5016936;28;20470;-82
2024/02/04 00:29:13;;;;;;;2.93;0.97;;;9.80;99.90;;;;;;5016936;28;20197;-84
2024/02/04 00:31:40;;;;;;;1.43;1.33;;;9.80;99.90;;;;;;5015079;28;20849;-83
2024/02/04 00:34:07;;;;;;;3.23;1.20;;;9.80;99.90;;;;;;5014791;28;20455;-83
2024/02/04 00:36:33;;;;;;;0.40;0.40;;;9.70;99.90;;;;;;5019484;28;20462;-83
2024/02/04 00:39:01;;;;;;;1.87;0.90;;;9.70;99.90;;;;;;5015555;28;20468;-83
2024/02/04 00:41:28;;;;;;;0.53;0.53;;;9.70;99.90;;;;;;5015219;28;20937;-82
2024/02/04 00:43:55;;;;;;;0.53;0.53;;;9.70;99.90;;;;;;5015579;28;20455;-82
2024/02/04 00:46:22;;;;;;;3.20;2.50;;;9.70;99.90;;;;;;5014359;28;20451;-81
2024/02/04 00:48:49;;;;;;;0.88;0.80;;;9.70;99.90;;;;;;5015245;28;20501;-82
2024/02/04 00:51:16;;;;;;;0.50;0.50;;;9.70;99.90;;;;;;5016808;28;20192;-83
2024/02/04 00:53:43;;;;;;;2.17;1.60;;;9.70;99.90;;;;;;5016619;28;20463;-81
2024/02/04 00:56:12;;;;;;;0.40;0.30;;;9.70;99.90;;;;;;5016189;28;20192;-83
2024/02/04 00:58:39;;;;;;;1.90;1.50;;;9.70;99.90;;;;;;5017873;28;20209;-84
2024/02/04 01:01:06;;;;;;;0.70;0.70;;;9.70;99.90;;;;;;5016616;28;20543;-82
2024/02/04 01:03:33;;;;;;;0.60;0.60;;;9.70;99.90;;;;;;5014890;28;20815;-79
2024/02/04 01:05:59;;;;;;;3.13;2.50;;;9.70;99.90;;;;;;5012939;28;20678;-83
2024/02/04 01:08:26;;;;;;;1.70;1.17;;;9.70;99.90;;;;;;5010279;28;20645;-81
2024/02/04 01:10:53;;;;;;;3.87;2.80;;;9.70;99.90;;;;;;5007128;28;20845;-82
2024/02/04 01:13:21;;;;;;;1.38;1.27;;;9.70;99.90;;;;;;5008896;28;20489;-79
2024/02/04 01:15:48;;;;;;;1.77;1.67;;;9.70;99.90;;;;;;5011996;28;20283;-83
2024/02/04 01:18:15;;;;;;;2.40;1.13;;;9.60;99.90;;;;;;5014087;28;20449;-82
2024/02/04 01:20:42;;;;;;;3.73;3.50;;;9.60;99.90;;;;;;5014451;28;20442;-81
2024/02/04 01:23:09;;;;;;;2.60;2.50;;;9.60;99.90;;;;;;5012149;28;20492;-83
2024/02/04 01:25:36;;;;;;;6.60;5.23;;;9.60;99.90;;;;;;5014070;28;20435;-79
2024/02/04 01:28:03;;;;;;;48.07;4.60;;;9.70;99.90;;;;;;5013721;28;20971;-81
2024/02/04 01:30:31;;;;;;;0.93;0.93;;;9.70;99.90;;;;;;5014200;28;20534;-82
2024/02/04 01:32:58;;;;;;;1.67;1.57;;;9.70;99.90;;;;;;5013399;28;20828;-81
2024/02/04 01:35:25;;;;;;;1.53;1.43;;;9.60;99.90;;;;;;5013873;28;20435;-82
2024/02/04 01:37:52;;;;;;;1.23;1.23;;;9.60;99.90;;;;;;5013630;28;20454;-81
2024/02/04 01:40:19;;;;;;;1.43;1.13;;;9.60;99.90;;;;;;5014022;28;20446;-81
2024/02/04 01:42:45;;;;;;;1.27;1.07;;;9.70;99.90;;;;;;5015306;28;20463;-82
2024/02/04 01:45:12;;;;;;;0.80;0.80;;;9.70;99.90;;;;;;5014336;28;20438;-81
2024/02/04 01:47:40;;;;;;;1.00;0.93;;;9.70;99.90;;;;;;5014825;28;20442;-79
2024/02/04 01:50:08;;;;;;;0.90;0.90;;;9.70;99.90;;;;;;5012414;28;20431;-82
2024/02/04 01:52:38;;;;;;;1.70;1.60;;;9.70;99.90;;;;;;5013794;28;20479;-81
2024/02/04 01:55:06;;;;;;;0.60;0.60;;;9.70;99.90;;;;;;5015374;28;20949;-82
2024/02/04 01:57:34;;;;;;;0.70;0.70;;;9.70;99.90;;;;;;5014586;28;20442;-81
2024/02/04 02:00:02;;;;;;;0.63;0.63;;;9.70;99.90;;;;;;5012929;28;20497;-81
2024/02/04 02:02:29;;;;;;;3.23;1.07;;;9.70;99.90;;;;;;5015425;28;20531;-81
2024/02/04 02:04:58;;;;;;;1.30;0.90;;;9.70;99.90;;;;;;5013866;28;20962;-80
2024/02/04 02:07:27;;;;;;;4.10;3.70;;;9.70;99.90;;;;;;5015529;28;20428;-82
2024/02/04 02:09:54;;;;;;;2.53;2.30;;;9.70;99.90;;;;;;5015145;28;20493;-80
2024/02/04 02:12:26;;;;;;;3.23;2.93;;;9.70;99.90;;;;;;5014831;28;20303;-81
2024/02/04 02:15:00;;;;;;;0.40;0.30;;;9.70;99.90;;;;;;5015999;28;21057;-82
2024/02/04 02:17:34;;;;;;;1.60;1.17;;;9.80;99.90;;;;;;5015907;28;20550;-81
2024/02/04 02:20:07;;;;;;;2.93;1.63;;;9.80;99.90;;;;;;5014891;28;20475;-81
2024/02/04 02:22:48;;;;;;;1.70;1.60;;;9.80;99.90;;;;;;5014439;28;20447;-81
2024/02/04 02:25:18;;;;;;;1.80;0.83;;;9.80;99.90;;;;;;5008464;28;20439;-82
2024/02/04 02:27:48;;;;;;;2.20;1.80;;;9.80;99.90;;;;;;5013273;28;20509;-81
2024/02/04 02:30:15;;;;;;;1.15;1.15;;;9.80;99.90;;;;;;5013274;28;20227;-81
2024/02/04 02:32:42;;;;;;;5.43;2.23;;;9.80;99.90;;;;;;5012656;28;20217;-82
2024/02/04 02:35:09;;;;;;;0.70;0.57;;;9.80;99.90;;;;;;5014622;28;20436;-81
2024/02/04 02:37:41;;;;;;;1.70;1.60;;;9.80;99.90;;;;;;5013168;28;20468;-81
2024/02/04 02:40:15;;;;;;;2.57;1.57;;;9.80;99.90;;;;;;5013104;28;20192;-81
2024/02/04 02:42:47;;;;;;;1.50;1.40;;;9.80;99.90;;;;;;5013017;28;20443;-79
2024/02/04 02:45:14;;;;;;;2.53;2.33;;;9.80;99.90;;;;;;5013395;28;20526;-81
2024/02/04 02:47:42;;;;;;;0.40;0.40;;;9.80;99.90;;;;;;5012819;28;20435;-79
2024/02/04 02:50:10;;;;;;;0.40;0.40;;;9.80;99.90;;;;;;5017462;28;20189;-79
2024/02/04 02:52:37;;;;;;;3.37;3.13;;;9.80;99.90;;;;;;5015990;28;20475;-82
2024/02/04 02:55:04;;;;;;;3.60;2.13;;;9.80;99.90;;;;;;5014133;28;20478;-81
2024/02/04 02:57:31;;;;;;;3.00;2.80;;;9.80;99.90;;;;;;5017283;28;20435;-82
2024/02/04 02:59:59;;;;;;;3.83;3.67;;;9.80;99.90;;;;;;5017474;28;20447;-82
2024/02/04 03:02:26;;;;;;;2.50;2.30;;;9.80;99.90;;;;;;5017195;28;20867;-83
2024/02/04 03:04:53;;;;;;;1.97;1.87;;;9.80;99.90;;;;;;5017179;28;20455;-82
2024/02/04 03:07:20;;;;;;;5.40;2.30;;;9.80;99.90;;;;;;5017639;28;20534;-81
2024/02/04 03:09:47;;;;;;;0.40;0.40;;;9.90;99.90;;;;;;5017452;28;20439;-82
2024/02/04 03:12:14;;;;;;;0.87;0.87;;;9.80;99.90;;;;;;5017011;28;20993;-81
2024/02/04 03:14:41;;;;;;;0.40;0.37;;;9.90;99.90;;;;;;5017371;28;20467;-82
2024/02/04 03:17:09;;;;;;;5.93;2.87;;;9.90;99.90;;;;;;5016940;28;20439;-82
2024/02/04 03:19:36;;;;;;;0.77;0.77;;;9.90;99.90;;;;;;5017094;28;20440;-82
2024/02/04 03:22:02;;;;;;;0.40;0.40;;;9.90;99.90;;;;;;5017097;28;20457;-82
2024/02/04 03:24:29;;;;;;;0.70;0.60;;;9.90;99.90;;;;;;5016942;28;20475;-82
2024/02/04 03:26:56;;;;;;;0.40;0.30;;;9.90;99.90;;;;;;5017252;28;20950;-82
2024/02/04 03:29:23;;;;;;;1.93;1.80;;;9.90;99.90;;;;;;5010772;28;20443;-81
2024/02/04 03:31:50;;;;;;;2.28;2.17;;;9.90;99.90;;;;;;5016782;28;20443;-81
2024/02/04 03:34:18;;;;;;;2.30;1.33;;;9.90;99.90;;;;;;5016727;28;20872;-82
2024/02/04 03:36:45;;;;;;;0.40;0.40;;;9.90;99.90;;;;;;5016833;28;20435;-82
2024/02/04 03:39:11;;;;;;;3.00;2.73;;;9.90;99.90;;;;;;5008837;28;20463;-82
2024/02/04 03:41:38;;;;;;;1.73;1.63;;;9.90;99.90;;;;;;5016222;28;20801;-81
2024/02/04 03:44:05;;;;;;;1.70;1.00;;;9.90;99.90;;;;;;5018105;28;20550;-82
2024/02/04 03:46:32;;;;;;;2.83;2.43;;;9.90;99.90;;;;;;5020822;28;20962;-81
2024/02/04 03:48:59;;;;;;;0.60;0.60;;;9.90;99.90;;;;;;5019941;28;20431;-82
2024/02/04 03:51:27;;;;;;;2.80;2.33;;;9.90;99.90;;;;;;5016165;28;20441;-82
2024/02/04 03:53:54;;;;;;;0.40;0.30;;;9.90;99.90;;;;;;5016185;28;20571;-82
2024/02/04 03:56:20;;;;;;;0.67;0.67;;;9.90;99.90;;;;;;5016509;28;21032;-82
2024/02/04 03:58:47;;;;;;;3.20;1.77;;;9.90;99.90;;;;;;5016705;28;20439;-82
2024/02/04 04:01:14;;;;;;;1.00;1.00;;;9.90;99.90;;;;;;5010254;28;20667;-82
2024/02/04 04:03:41;;;;;;;1.40;1.30;;;9.90;99.90;;;;;;5015889;28;20462;-82
2024/02/04 04:06:08;;;;;;;0.40;0.40;;;9.90;99.90;;;;;;5012614;28;20487;-81
2024/02/04 04:08:37;;;;;;;2.77;2.57;;;9.90;99.90;;;;;;5012365;28;20857;-81
2024/02/04 04:11:04;;;;;;;2.20;0.90;;;9.90;99.90;;;;;;5016027;28;20480;-81
2024/02/04 04:13:32;;;;;;;0.40;0.30;;;9.90;99.90;;;;;;5015352;28;20923;-81
2024/02/04 04:15:58;;;;;;;2.00;1.90;;;9.90;99.90;;;;;;5016006;28;20534;-81
2024/02/04 04:18:25;;;;;;;4.93;2.30;;;9.90;99.90;;;;;;5015632;28;20989;-81
2024/02/04 04:20:52;;;;;;;3.70;2.17;;;9.90;99.90;;;;;;5013714;28;20590;-82
2024/02/04 04:23:19;;;;;;;2.83;1.67;;;9.90;99.90;;;;;;5014555;28;20463;-81
2024/02/04 04:25:47;;;;;;;4.83;3.13;;;9.90;99.90;;;;;;5015865;28;20810;-80
2024/02/04 04:28:14;;;;;;;16.70;5.87;;;9.90;99.90;;;;;;5015630;28;20440;-80
2024/02/04 04:30:40;;;;;;;5.53;4.60;;;9.90;99.90;;;;;;5015405;28;20522;-82
2024/02/04 04:33:08;;;;;;;1.90;1.57;;;9.90;99.90;;;;;;5014874;28;20862;-82
2024/02/04 04:35:34;;;;;;;0.40;0.40;;;9.90;99.90;;;;;;5014635;28;20446;-80
2024/02/04 04:38:01;;;;;;;2.20;1.50;;;9.90;99.90;;;;;;5012265;28;20444;-81
2024/02/04 04:40:28;;;;;;;0.40;0.40;;;9.90;99.90;;;;;;5014755;28;20442;-80
2024/02/04 04:42:56;;;;;;;4.00;3.17;;;9.90;99.90;;;;;;5014356;28;20782;-81
2024/02/04 04:45:23;;;;;;;0.40;0.40;;;9.90;99.90;;;;;;5014086;28;20538;-82
2024/02/04 04:47:50;;;;;;;0.60;0.60;;;9.90;99.90;;;;;;5014001;28;20446;-81
2024/02/04 04:50:16;;;;;;;1.20;1.10;;;9.90;99.90;;;;;;5012243;28;20838;-81
2024/02/04 04:52:43;;;;;;;1.70;1.60;;;9.90;99.90;;;;;;5008609;28;20490;-81
2024/02/04 04:55:10;;;;;;;6.33;3.97;;;9.90;99.90;;;;;;5010520;28;20459;-82
2024/02/04 04:57:37;;;;;;;4.15;1.05;;;9.90;99.90;;;;;;5014470;28;20530;-81
2024/02/04 05:00:09;;;;;;;2.10;2.00;;;9.90;99.90;;;;;;5009948;28;20197;-81
2024/02/04 05:02:36;;;;;;;2.03;1.70;;;9.90;99.90;;;;;;5009361;28;20475;-81
2024/02/04 05:05:03;;;;;;;8.87;5.80;;;9.90;99.90;;;;;;5013997;28;20197;-81
2024/02/04 05:07:30;;;;;;;5.07;2.53;;;9.90;99.90;;;;;;5014229;28;20803;-81
2024/02/04 05:09:56;;;;;;;0.40;0.30;;;9.90;99.90;;;;;;5013297;28;20201;-80
2024/02/04 05:12:23;;;;;;;3.13;2.83;;;9.90;99.90;;;;;;5005790;28;20450;-79
2024/02/04 05:14:50;;;;;;;4.67;2.70;;;9.90;99.90;;;;;;5006942;28;20475;-81
2024/02/04 05:17:18;;;;;;;0.40;0.30;;;9.80;99.90;;;;;;5013225;28;20443;-81
2024/02/04 05:19:45;;;;;;;3.80;1.60;;;9.80;99.90;;;;;;5013157;28;20201;-81
2024/02/04 05:22:12;;;;;;;2.93;1.40;;;9.90;99.90;;;;;;5013412;28;20842;-80
2024/02/04 05:24:38;;;;;;;23.70;6.70;;;9.80;99.90;;;;;;5013365;28;20539;-80
2024/02/04 05:27:05;;;;;;;0.80;0.80;;;9.80;99.90;;;;;;5013879;28;20894;-82
2024/02/04 05:29:32;;;;;;;4.00;3.70;;;9.80;99.90;;;;;;5013917;28;20443;-82
2024/02/04 05:31:59;;;;;;;7.33;4.57;;;9.80;99.90;;;;;;5009443;28;20944;-80
2024/02/04 05:34:27;;;;;;;4.67;4.43;;;9.80;99.90;;;;;;5013850;28;20581;-80
2024/02/04 05:36:54;;;;;;;1.60;1.50;;;9.80;99.90;;;;;;5017636;28;20442;-81
2024/02/04 05:39:23;;;;;;;3.47;1.77;;;9.80;99.90;;;;;;5013585;28;20454;-81
2024/02/04 05:41:50;;;;;;;1.23;0.70;;;9.80;99.90;;;;;;5013235;28;20515;-79
2024/02/04 05:44:17;;;;;;;3.60;1.43;;;9.80;99.90;;;;;;5012452;28;20519;-80
2024/02/04 05:46:43;;;;;;;0.57;0.57;;;9.80;99.90;;;;;;5013350;28;20440;-81
2024/02/04 05:49:10;;;;;;;0.60;0.60;;;9.80;99.90;;;;;;5017151;28;20443;-83
2024/02/04 05:51:41;;;;;;;2.10;0.97;;;9.80;99.90;;;;;;5017031;28;20509;-82
2024/02/04 05:54:09;;;;;;;2.50;1.47;;;9.80;99.90;;;;;;5016554;28;20850;-81
2024/02/04 05:56:36;;;;;;;0.83;0.83;;;9.80;99.90;;;;;;5016299;28;20877;-82
2024/02/04 05:59:03;;;;;;;3.03;2.70;;;9.90;99.90;;;;;;5017729;28;20530;-82
2024/02/04 06:01:30;;;;;;;0.47;0.43;;;9.90;99.90;;;;;;5016954;28;21030;-81
2024/02/04 06:03:57;;;;;;;4.32;2.70;;;9.90;99.90;;;;;;5014321;28;20487;-82
2024/02/04 06:06:23;;;;;;;6.93;2.60;;;9.90;99.90;;;;;;5016566;28;20660;-82
2024/02/04 06:08:52;;;;;;;1.37;1.33;;;9.90;99.90;;;;;;5016186;28;20552;-81
2024/02/04 06:11:19;;;;;;;5.22;4.72;;;9.90;99.90;;;;;;5015284;28;20447;-80
2024/02/04 06:13:46;;;;;;;2.75;2.10;;;9.90;99.90;;;;;;5015378;28;20212;-82
2024/02/04 06:16:13;;;;;;;3.93;3.63;;;9.90;99.90;;;;;;5015741;28;20207;-81
2024/02/04 06:18:40;;;;;;;2.00;1.90;;;9.90;99.90;;;;;;5016390;28;20812;-80
2024/02/04 06:21:07;;;;;;;10.60;4.97;;;9.90;99.90;;;;;;5015412;28;20446;-82
2024/02/04 06:23:34;;;;;;;4.87;4.10;;;9.90;99.90;;;;;;5015690;28;20530;-81
2024/02/04 06:26:04;;;;;;;4.90;3.83;;;9.90;99.90;;;;;;5014082;28;20443;-83
2024/02/04 06:28:30;;;;;;;6.33;5.13;;;9.90;99.90;;;;;;5004765;28;20882;-80
2024/02/04 06:30:57;;;;;;;1.40;1.00;;;9.90;99.90;;;;;;5012231;28;20443;-82
2024/02/04 06:33:24;;;;;;;0.90;0.90;;;9.90;99.90;;;;;;5012649;28;20491;-82
2024/02/04 06:35:51;;;;;;;9.43;5.83;;;9.90;99.90;;;;;;5013232;28;20443;-82
2024/02/04 06:38:18;;;;;;;9.93;4.70;;;9.90;99.90;;;;;;5005502;28;20466;-81
2024/02/04 06:40:45;;;;;;;2.57;2.10;;;9.90;99.90;;;;;;5002500;28;20455;-81
2024/02/04 06:43:13;;;;;;;2.67;2.57;;;9.90;99.90;;;;;;5010648;28;22756;-80
2024/02/04 06:45:40;;;;;;;2.70;2.50;;;9.90;99.90;;;;;;5010964;28;20455;-80
2024/02/04 06:48:09;;;;;;;9.60;6.93;;;9.90;99.90;;;;;;5015210;28;20438;-81
2024/02/04 06:50:36;;;;;;;4.10;3.47;;;9.90;99.90;;;;;;5017632;28;20468;-82
2024/02/04 06:53:03;;;;;;;2.47;2.37;;;9.90;99.90;;;;;;5009796;28;20712;-81
2024/02/04 06:55:30;;;;;;;6.83;6.27;;;9.90;99.90;;;;;;5008191;28;20455;-82
2024/02/04 06:57:57;;;;;;;10.40;6.80;;;9.90;99.90;;;;;;5011597;28;20451;-81
2024/02/04 07:00:25;;;;;;;7.13;5.57;;;9.90;99.90;;;;;;5014099;28;20459;-81
2024/02/04 07:02:52;;;;;;;1.90;1.40;;;9.90;99.90;;;;;;5012234;28;20974;-81
2024/02/04 07:05:18;;;;;;;3.95;2.47;;;9.80;99.90;;;;;;5013083;28;20948;-83
2024/02/04 07:07:45;;;;;;;10.83;5.90;;;9.80;99.90;;;;;;5006684;28;20192;-80
2024/02/04 07:10:12;;;;;;;3.08;1.55;;;9.80;99.90;;;;;;5009396;28;20459;-83
2024/02/04 07:12:39;;;;;;;7.63;3.50;;;9.80;99.90;;;;;;5012548;28;20197;-81
2024/02/04 07:15:07;;;;;;;2.40;2.20;;;9.90;99.90;;;;;;5013031;28;20479;-81
2024/02/04 07:17:35;;;;;;;2.90;2.80;;;9.90;99.90;;;;;;5009440;28;20455;-82
2024/02/04 07:20:02;;;;;;;5.30;2.43;;;9.90;99.90;;;;;;5013541;28;20811;-82
2024/02/04 07:22:29;;;;;;;9.63;5.60;;;9.90;99.90;;;;;;5012404;28;20815;-81
2024/02/04 07:24:56;;;;;;;1.30;1.27;;;9.90;99.90;;;;;;5013149;28;20458;-82
2024/02/04 07:27:23;;;;;;;2.27;2.10;;;9.90;99.90;;;;;;5010557;28;20814;-82
2024/02/04 07:29:49;;;;;;;3.10;2.80;;;9.90;99.90;;;;;;5012978;28;20442;-82
2024/02/04 07:32:16;;;;;;;8.33;7.50;;;9.90;99.90;;;;;;5012137;28;20474;-82
2024/02/04 07:34:45;;;;;;;5.70;2.40;;;9.90;99.90;;;;;;5012672;28;20483;-82
2024/02/04 07:37:11;;;;;;;1.57;1.47;;;9.90;99.90;;;;;;5012021;28;20958;-81
2024/02/04 07:39:38;;;;;;;5.90;2.80;;;9.90;99.90;;;;;;5012848;28;20436;-81
2024/02/04 07:42:05;;;;;;;3.30;3.10;;;9.90;99.90;;;;;;5013049;28;20948;-81
2024/02/04 07:44:32;;;;;;;3.13;2.30;;;9.90;99.90;;;;;;5015903;28;20459;-81
2024/02/04 07:46:59;;;;;;;1.10;0.87;;;9.90;99.90;;;;;;5015161;28;20450;-82
2024/02/04 07:49:25;;;;;;;2.83;2.60;;;9.90;99.90;;;;;;5015624;28;20514;-80
2024/02/04 07:51:54;;;;;;;3.67;3.38;;;9.90;99.90;;;;;;5015436;28;20815;-79
2024/02/04 07:54:20;;;;;;;3.43;0.80;;;9.90;99.90;;;;;;5015310;28;20248;-81
2024/02/04 07:56:47;;;;;;;3.33;3.03;;;9.90;99.90;;;;;;5015303;28;20973;-81
2024/02/04 07:59:14;;;;;;;6.53;3.83;;;9.90;99.90;;;;;;5014090;28;20526;-81
2024/02/04 08:01:41;;;;;;;3.40;1.47;;;10.00;99.90;;;;;;5015426;28;20445;-83
2024/02/04 08:04:10;;;;;;;0.57;0.57;;;10.00;99.90;;;;;;5015160;28;20456;-81
2024/02/04 08:06:37;;;;;;;1.85;1.25;;;9.90;99.90;;;;;;5015504;28;20471;-81
2024/02/04 08:09:06;;;;;;;3.77;2.57;;;9.90;99.90;;;;;;5015958;28;20204;-81
2024/02/04 08:11:33;;;;;;;0.70;0.70;;;9.90;99.90;;;;;;5015034;28;20467;-81
2024/02/04 08:14:00;;;;;;;8.40;1.73;;;9.90;99.90;;;;;;5014561;28;20220;-80
2024/02/04 08:16:27;;;;;;;2.30;2.10;;;9.90;99.90;;;;;;4999744;28;20458;-81
2024/02/04 08:18:53;;;;;;;1.08;1.08;;;9.90;99.90;;;;;;5005945;28;20852;-82
2024/02/04 08:21:20;;;;;;;0.40;0.40;;;9.90;99.90;;;;;;5006400;28;20196;-81
2024/02/04 08:23:47;;;;;;;2.13;1.50;;;9.80;99.90;;;;;;5002764;28;20772;-82
2024/02/04 08:26:15;;;;;;;1.00;0.83;;;9.80;99.90;;;;;;5014229;28;20459;-82
2024/02/04 08:28:42;;;;;;;0.68;0.68;;;9.80;99.90;;;;;;5008629;28;20473;-81
2024/02/04 08:31:09;;;;;;;1.63;1.53;;;9.80;99.90;;;;;;5004133;28;20199;-82
2024/02/04 08:33:35;;;;;;;1.10;1.00;;;9.80;99.90;;;;;;5003469;28;20479;-82
2024/02/04 08:36:03;;;;;;;0.40;0.40;;;9.80;99.90;;;;;;5009956;28;20471;-83
2024/02/04 08:38:30;;;;;;;0.97;0.90;;;9.80;99.90;;;;;;5017516;28;20477;-83
2024/02/04 08:40:56;;;;;;;5.40;1.27;;;9.80;99.90;;;;;;5016845;28;20455;-83
2024/02/04 08:43:25;;;;;;;0.50;0.40;;;9.90;99.90;;;;;;5021669;28;20478;-82
2024/02/04 08:45:51;;;;;;;6.43;1.33;;;9.90;99.90;;;;;;5019877;28;20435;-83
2024/02/04 08:48:18;;;;;;;0.40;0.40;;;9.90;99.90;;;;;;5014773;28;20470;-79
2024/02/04 08:50:45;;;;;;;2.40;1.47;;;9.90;99.90;;;;;;5005014;28;20480;-82
2024/02/04 08:53:12;;;;;;;0.97;0.60;;;9.90;99.90;;;;;;5011188;28;20546;-83
2024/02/04 08:55:39;;;;;;;0.80;0.80;;;9.80;99.90;;;;;;5015774;28;20562;-81
2024/02/04 08:58:05;;;;;;;0.50;0.50;;;9.80;99.90;;;;;;5019585;28;20509;-83
2024/02/04 09:00:34;;;;;;;0.40;0.40;;;9.90;99.90;;;;;;5018812;28;20455;-83
2024/02/04 09:03:00;;;;;;;1.00;0.80;;;9.90;99.90;;;;;;5019436;28;20448;-80
2024/02/04 09:05:27;;;;;;;0.50;0.50;;;9.90;99.90;;;;;;5017197;28;20436;-81
2024/02/04 09:07:55;;;;;;;1.17;0.50;;;9.90;99.90;;;;;;5018716;28;20435;-83
2024/02/04 09:10:21;;;;;;;0.40;0.30;;;9.90;99.90;;;;;;5017349;28;20463;-82
2024/02/04 09:12:48;;;;;;;0.50;0.50;;;9.90;99.90;;;;;;5014720;28;20510;-81
2024/02/04 09:15:15;;;;;;;3.90;1.45;;;9.90;99.90;;;;;;5015770;28;20479;-82
2024/02/04 09:17:43;;;;;;;0.53;0.53;;;9.90;99.90;;;;;;5016620;28;20201;-83
2024/02/04 09:20:11;;;;;;;5.50;1.90;;;10.00;99.90;;;;;;5015837;28;20457;-83
2024/02/04 09:22:39;;;;;;;1.70;1.60;;;10.00;99.90;;;;;;5014594;28;20451;-83
2024/02/04 09:25:06;;;;;;;3.53;1.63;;;10.00;99.90;;;;;;5015323;28;20443;-84
2024/02/04 09:27:33;;;;;;;1.43;1.33;;;10.00;99.90;;;;;;5015023;28;20443;-82
2024/02/04 09:30:00;;;;;;;5.00;2.70;;;10.00;99.90;;;;;;5014164;28;20440;-83
2024/02/04 09:32:27;;;;;;;2.47;2.23;;;10.00;99.90;;;;;;5013973;28;20450;-83
2024/02/04 09:34:55;;;;;;;1.27;0.87;;;10.00;99.90;;;;;;5015279;28;20486;-83
2024/02/04 09:37:22;;;;;;;3.80;2.87;;;10.00;99.90;;;;;;5015290;28;20530;-81
2024/02/04 09:39:48;;;;;;;4.60;2.73;;;10.00;99.90;;;;;;5019910;28;20956;-80
2024/02/04 09:42:21;;;;;;;5.97;3.10;;;10.00;99.90;;;;;;5018340;28;20436;-81
2024/02/04 09:44:49;;;;;;;1.03;1.00;;;10.00;99.90;;;;;;5021192;28;20443;-81
2024/02/04 09:47:16;;;;;;;1.80;1.70;;;10.00;99.90;;;;;;5016626;28;20442;-80
2024/02/04 09:49:43;;;;;;;2.40;0.70;;;10.00;99.90;;;;;;5017373;28;20431;-81
2024/02/04 09:52:14;;;;;;;0.40;0.40;;;10.10;99.90;;;;;;5016463;28;20546;-80
2024/02/04 09:54:45;;;;;;;0.40;0.30;;;10.10;99.90;;;;;;5022060;28;20570;-80
2024/02/04 09:57:14;;;;;;;1.73;1.40;;;10.10;99.90;;;;;;5017347;28;20443;-80
2024/02/04 09:59:43;;;;;;;3.13;2.93;;;10.10;99.90;;;;;;5012318;28;20447;-83
2024/02/04 10:02:10;;;;;;;2.00;1.90;;;10.10;99.90;;;;;;5023578;28;20498;-84
2024/02/04 10:04:37;;;;;;;3.03;2.83;;;10.10;99.90;;;;;;5014152;28;20448;-82
2024/02/04 10:07:05;;;;;;;5.77;4.30;;;10.10;99.90;;;;;;5014020;28;20463;-83
2024/02/04 10:09:33;;;;;;;2.13;1.13;;;10.10;99.90;;;;;;5015411;28;21014;-83
2024/02/04 10:12:00;;;;;;;0.70;0.70;;;10.10;99.90;;;;;;5016231;28;20543;-83
2024/02/04 10:14:27;;;;;;;2.67;2.47;;;10.20;99.90;;;;;;5019344;28;20485;-80
2024/02/04 10:16:54;;;;;;;0.40;0.40;;;10.20;99.90;;;;;;5015623;28;20459;-85
2024/02/04 10:19:21;;;;;;;6.07;4.70;;;10.20;99.90;;;;;;5018036;28;20439;-82
2024/02/04 10:21:58;;;;;;;1.47;1.37;;;10.20;99.90;;;;;;5011494;28;21153;-81
2024/02/04 10:24:25;;;;;;;8.33;4.00;;;10.20;99.90;;;;;;5020313;28;20486;-84
2024/02/04 10:26:53;;;;;;;1.43;1.33;;;10.30;99.90;;;;;;5014552;28;20450;-84
2024/02/04 10:29:20;;;;;;;5.20;3.50;;;10.20;99.90;;;;;;5008793;28;20461;-80
2024/02/04 10:31:46;;;;;;;4.17;1.40;;;10.30;99.90;;;;;;5013192;28;20435;-80
2024/02/04 10:34:13;;;;;;;2.63;2.40;;;10.30;99.90;;;;;;5010422;28;21030;-81
2024/02/04 10:36:40;;;;;;;8.13;2.80;;;10.40;99.90;;;;;;5010875;28;20851;-79
2024/02/04 10:39:07;;;;;;;5.00;2.03;;;10.40;99.90;;;;;;5014338;28;20442;-79
2024/02/04 10:41:35;;;;;;;1.87;1.47;;;10.40;99.90;;;;;;5013882;28;20478;-80
2024/02/04 10:44:05;;;;;;;3.13;1.87;;;10.40;99.90;;;;;;5014758;28;20553;-80
2024/02/04 10:46:34;;;;;;;3.17;2.30;;;10.40;99.90;;;;;;5015621;28;20435;-83
2024/02/04 10:49:06;;;;;;;3.60;3.30;;;10.50;99.90;;;;;;5016197;28;20462;-81
2024/02/04 10:51:34;;;;;;;1.73;0.60;;;10.50;99.90;;;;;;5016570;28;20458;-80
2024/02/04 10:54:04;;;;;;;0.60;0.60;;;10.60;99.90;;;;;;5013596;28;20551;-81
2024/02/04 10:56:37;;;;;;;2.00;1.50;;;10.60;99.90;;;;;;5013573;28;20481;-80
2024/02/04 10:59:07;;;;;;;0.80;0.80;;;10.70;99.90;;;;;;5018894;28;20803;-82
2024/02/04 11:01:34;;;;;;;1.47;1.17;;;10.80;99.90;;;;;;5016011;28;20527;-80
2024/02/04 11:04:03;;;;;;;0.80;0.80;;;10.90;99.90;;;;;;5012275;28;20473;-80
2024/02/04 11:06:31;;;;;;;0.63;0.63;;;10.90;99.90;;;;;;5012116;28;20442;-82
2024/02/04 11:09:00;;;;;;;0.70;0.70;;;10.80;99.90;;;;;;5008404;28;20459;-80
2024/02/04 11:11:27;;;;;;;0.70;0.47;;;10.80;99.90;;;;;;5023803;28;20537;-80
2024/02/04 11:13:57;;;;;;;2.20;1.27;;;10.80;99.90;;;;;;5011760;28;21001;-79
2024/02/04 11:16:41;;;;;;;2.17;1.80;;;10.80;99.90;;;;;;5013118;28;20478;-80
2024/02/04 11:19:17;;;;;;;3.87;2.40;;;10.70;99.90;;;;;;5016876;28;20446;-80
2024/02/04 11:22:14;;;;;;;1.67;1.57;;;10.70;99.90;;;;;;5016672;28;20447;-80
2024/02/04 11:25:03;;;;;;;5.93;1.50;;;10.60;99.90;;;;;;5014767;28;20458;-81
2024/02/04 11:27:30;;;;;;;2.17;2.07;;;10.50;99.90;;;;;;5021485;28;20542;-80
2024/02/04 11:29:57;;;;;;;0.40;0.40;;;10.50;99.90;;;;;;5015671;28;20827;-81
2024/02/04 11:32:26;;;;;;;0.57;0.57;;;10.50;99.90;;;;;;5016168;28;20439;-81
2024/02/04 11:34:54;;;;;;;1.57;1.47;;;10.50;99.90;;;;;;5015205;28;20483;-81
2024/02/04 11:37:21;;;;;;;0.90;0.80;;;10.50;99.90;;;;;;5018504;28;20466;-80
2024/02/04 11:39:52;;;;;;;1.00;1.00;;;10.50;99.90;;;;;;5015234;28;20451;-81
2024/02/04 11:42:20;;;;;;;1.23;1.13;;;10.50;99.90;;;;;;5016964;28;20442;-80
2024/02/04 11:44:47;;;;;;;1.33;1.23;;;10.50;99.90;;;;;;5015739;28;20457;-79
2024/02/04 11:47:24;;;;;;;1.17;1.07;;;10.50;99.90;;;;;;5015472;28;20441;-80
2024/02/04 11:49:56;;;;;;;1.23;0.90;;;10.50;99.90;;;;;;5017776;28;20466;-80
2024/02/04 11:52:23;;;;;;;0.40;0.40;;;10.50;99.90;;;;;;5019190;28;20466;-81
2024/02/04 11:54:50;;;;;;;1.60;1.50;;;10.50;99.90;;;;;;5015986;28;20491;-82
2024/02/04 11:57:17;;;;;;;0.80;0.80;;;10.50;99.90;;;;;;5017844;28;21163;-81
2024/02/04 11:59:45;;;;;;;0.97;0.87;;;10.50;99.90;;;;;;5015699;28;20439;-81
2024/02/04 12:02:12;;;;;;;1.87;1.77;;;10.50;99.90;;;;;;5022473;28;20529;-80
2024/02/04 12:04:40;;;;;;;1.50;1.40;;;10.50;99.90;;;;;;5018117;28;20455;-81
2024/02/04 12:07:09;;;;;;;1.27;1.17;;;10.50;99.90;;;;;;5021298;28;20435;-81
2024/02/04 12:09:36;;;;;;;2.67;1.50;;;10.50;99.90;;;;;;5016960;28;20787;-80
2024/02/04 12:12:05;;;;;;;1.20;1.10;;;10.50;99.90;;;;;;5014733;28;20542;-81
2024/02/04 12:14:32;;;;;;;1.37;0.93;;;10.40;99.90;;;;;;5016172;28;20495;-81
2024/02/04 12:16:59;;;;;;;0.77;0.70;;;10.50;99.90;;;;;;5016224;28;20486;-79
2024/02/04 12:19:26;;;;;;;0.70;0.70;;;10.50;99.90;;;;;;5020071;28;20447;-81
2024/02/04 12:21:54;;;;;;;4.70;2.33;;;10.50;99.90;;;;;;5018581;28;20451;-80
2024/02/04 12:24:23;;;;;;;1.73;1.43;;;10.40;99.90;;;;;;5025648;28;20439;-80
2024/02/04 12:26:50;;;;;;;2.20;2.10;;;10.40;99.90;;;;;;5035911;28;20455;-80
2024/02/04 12:29:16;;;;;;;2.67;2.47;;;10.40;99.90;;;;;;5043403;28;20511;-80
2024/02/04 12:31:45;;;;;;;2.00;1.50;;;10.40;99.90;;;;;;5040390;28;20470;-81
2024/02/04 12:34:13;;;;;;;1.87;1.13;;;10.50;99.90;;;;;;5037818;28;20458;-80
2024/02/04 12:36:40;;;;;;;1.90;1.60;;;10.50;99.90;;;;;;5037902;28;20509;-80
2024/02/04 12:39:09;;;;;;;1.90;1.17;;;10.50;99.90;;;;;;5037503;28;20483;-81
2024/02/04 12:41:38;;;;;;;2.10;0.83;;;10.50;99.90;;;;;;5036259;28;20435;-81
2024/02/04 12:44:05;;;;;;;2.10;1.40;;;10.50;99.90;;;;;;5035876;28;20494;-80
2024/02/04 12:46:32;;;;;;;2.23;2.10;;;10.50;99.90;;;;;;5033935;28;20464;-81
2024/02/04 12:48:59;;;;;;;1.37;1.27;;;10.60;99.90;;;;;;5038025;28;20481;-81
2024/02/04 12:51:27;;;;;;;3.47;3.27;;;10.60;99.90;;;;;;5017330;28;20436;-81
2024/02/04 12:54:05;;;;;;;0.40;0.30;;;10.50;99.90;;;;;;5017604;28;20459;-81
2024/02/04 12:56:46;;;;;;;2.50;2.40;;;10.60;99.90;;;;;;5015993;28;20471;-80